createdAt,value
2023-03-24T00:01:34.198Z,2.40
2023-03-24T00:04:02.881Z,2.47
2023-03-24T00:06:34.804Z,2.57
2023-03-24T00:09:04.897Z,2.87
2023-03-24T00:11:35.254Z,2.77
2023-03-24T00:14:03.924Z,2.63
2023-03-24T00:16:34.712Z,2.50
2023-03-24T00:19:03.188Z,2.40
2023-03-24T00:21:32.963Z,2.83
2023-03-24T00:24:02.047Z,2.67
2023-03-24T00:26:30.598Z,2.77
2023-03-24T00:28:59.024Z,2.60
2023-03-24T00:31:27.816Z,2.83
2023-03-24T00:33:56.331Z,2.43
2023-03-24T00:36:26.042Z,2.67
2023-03-24T00:38:56.158Z,2.70
2023-03-24T00:41:26.963Z,2.67
2023-03-24T00:43:57.039Z,2.67
2023-03-24T00:46:28.878Z,2.60
2023-03-24T00:49:02.397Z,2.53
2023-03-24T00:51:32.196Z,3.00
2023-03-24T00:54:02.413Z,2.90
2023-03-24T00:56:32.380Z,2.37
2023-03-24T00:59:10.322Z,2.83
2023-03-24T01:01:41.290Z,2.80
2023-03-24T01:04:10.498Z,2.90
2023-03-24T01:06:39.460Z,2.47
2023-03-24T01:09:10.747Z,2.70
2023-03-24T01:11:40.323Z,2.90
2023-03-24T01:14:09.783Z,2.70
2023-03-24T01:16:38.681Z,2.50
2023-03-24T01:19:09.406Z,2.80
2023-03-24T01:21:38.149Z,3.00
2023-03-24T01:24:07.012Z,2.50
2023-03-24T01:26:37.373Z,2.70
2023-03-24T01:29:06.093Z,2.80
2023-03-24T01:31:34.783Z,2.80
2023-03-24T01:34:03.402Z,2.97
2023-03-24T01:36:31.875Z,2.33
2023-03-24T01:39:01.366Z,2.73
2023-03-24T01:41:32.292Z,2.37
2023-03-24T01:44:03.038Z,2.70
2023-03-24T01:46:33.456Z,2.90
2023-03-24T01:49:03.125Z,2.50
2023-03-24T01:51:35.209Z,2.10
2023-03-24T01:54:06.666Z,2.37
2023-03-24T01:56:36.326Z,2.50
2023-03-24T01:59:08.226Z,2.20
2023-03-24T02:01:36.797Z,2.40
2023-03-24T02:04:06.739Z,2.80
2023-03-24T02:06:37.002Z,3.07
2023-03-24T02:09:06.078Z,2.33
2023-03-24T02:11:35.693Z,2.40
2023-03-24T02:14:04.545Z,2.47
2023-03-24T02:16:41.056Z,2.10
2023-03-24T02:19:25.234Z,2.37
2023-03-24T02:22:17.254Z,2.23
2023-03-24T02:25:16.470Z,3.30
2023-03-24T02:28:01.874Z,2.93
2023-03-24T02:30:48.278Z,1.83
2023-03-24T02:33:31.613Z,2.57
2023-03-24T02:36:15.463Z,2.30
2023-03-24T02:39:09.274Z,1.87
2023-03-24T02:41:43.793Z,2.13
2023-03-24T02:44:16.633Z,1.90
2023-03-24T02:46:46.938Z,2.30
2023-03-24T02:49:21.444Z,2.37
2023-03-24T02:51:53.647Z,2.30
2023-03-24T02:54:24.942Z,2.00
2023-03-24T02:56:57.385Z,2.30
2023-03-24T02:59:31.677Z,2.07
2023-03-24T03:02:02.339Z,2.03
2023-03-24T03:04:33.416Z,2.30
2023-03-24T03:07:06.538Z,2.93
2023-03-24T03:09:35.461Z,2.00
2023-03-24T03:12:06.371Z,2.40
2023-03-24T03:14:37.618Z,2.30
2023-03-24T03:17:07.963Z,2.20
2023-03-24T03:19:38.780Z,2.50
2023-03-24T03:22:08.638Z,2.43
2023-03-24T03:24:39.334Z,2.77
2023-03-24T03:27:10.337Z,2.73
2023-03-24T03:29:41.201Z,2.70
2023-03-24T03:32:11.322Z,2.80
2023-03-24T03:34:42.910Z,2.60
2023-03-24T03:37:13.278Z,2.50
2023-03-24T03:39:43.386Z,3.00
2023-03-24T03:42:13.771Z,2.50
2023-03-24T03:44:42.167Z,2.53
2023-03-24T03:47:10.713Z,2.10
2023-03-24T03:49:39.305Z,2.70
2023-03-24T03:52:07.875Z,2.30
2023-03-24T03:54:36.309Z,3.07
2023-03-24T03:57:04.843Z,2.83
2023-03-24T03:59:36.259Z,3.67
2023-03-24T04:02:08.710Z,3.23
2023-03-24T04:04:53.298Z,2.80
2023-03-24T04:07:32.727Z,3.53
2023-03-24T04:10:06.826Z,3.00
2023-03-24T04:12:44.058Z,3.57
2023-03-24T04:15:22.117Z,3.77
2023-03-24T04:18:08.746Z,4.10
2023-03-24T04:20:46.361Z,3.50
2023-03-24T04:23:20.127Z,3.47
2023-03-24T04:25:56.711Z,3.80
2023-03-24T04:28:27.271Z,3.67
2023-03-24T04:31:01.511Z,4.17
2023-03-24T04:33:33.304Z,3.83
2023-03-24T04:36:06.653Z,4.23
2023-03-24T04:38:38.418Z,3.60
2023-03-24T04:41:07.293Z,3.43
2023-03-24T04:43:37.453Z,3.90
2023-03-24T04:46:09.522Z,4.30
2023-03-24T04:48:38.113Z,4.37
2023-03-24T04:51:06.636Z,3.70
2023-03-24T04:53:35.088Z,4.00
2023-03-24T04:56:08.566Z,4.57
2023-03-24T04:58:36.921Z,4.23
2023-03-24T05:01:09.072Z,4.03
2023-03-24T05:03:38.235Z,3.90
2023-03-24T05:06:07.740Z,4.53
2023-03-24T05:08:36.219Z,3.37
2023-03-24T05:11:04.578Z,3.70
2023-03-24T05:13:33.253Z,3.77
2023-03-24T05:16:01.733Z,4.57
2023-03-24T05:18:31.538Z,4.50
2023-03-24T05:21:00.797Z,4.10
2023-03-24T05:23:29.277Z,3.83
2023-03-24T05:25:57.553Z,3.40
2023-03-24T05:28:25.989Z,3.43
2023-03-24T05:30:54.392Z,3.70
2023-03-24T05:33:22.798Z,3.57
2023-03-24T05:35:52.553Z,3.57
2023-03-24T05:38:21.040Z,3.20
2023-03-24T05:40:49.386Z,3.43
2023-03-24T05:43:17.788Z,4.30
2023-03-24T05:45:46.342Z,4.27
2023-03-24T05:48:14.906Z,4.00
2023-03-24T05:50:43.383Z,4.47
2023-03-24T05:53:13.239Z,4.80
2023-03-24T05:55:41.858Z,4.50
2023-03-24T05:58:10.365Z,5.40
2023-03-24T06:00:38.845Z,4.83
2023-03-24T06:03:07.412Z,5.77
2023-03-24T06:05:36.024Z,4.50
2023-03-24T06:08:04.346Z,4.40
2023-03-24T06:10:36.869Z,4.20
2023-03-24T06:13:05.319Z,4.33
2023-03-24T06:15:33.769Z,3.67
2023-03-24T06:18:02.241Z,4.40
2023-03-24T06:20:30.712Z,5.17
2023-03-24T06:23:00.206Z,4.20
2023-03-24T06:25:30.045Z,4.40
2023-03-24T06:28:04.245Z,4.63
2023-03-24T06:30:32.767Z,4.30
2023-03-24T06:33:01.167Z,4.13
2023-03-24T06:35:29.474Z,5.00
2023-03-24T06:37:57.966Z,4.43
2023-03-24T06:40:26.415Z,4.73
2023-03-24T06:42:54.755Z,5.23
2023-03-24T06:45:24.562Z,4.07
2023-03-24T06:47:55.835Z,4.40
2023-03-24T06:50:26.813Z,4.20
2023-03-24T06:52:55.328Z,4.20
2023-03-24T06:55:23.718Z,4.60
2023-03-24T06:57:52.208Z,4.30
2023-03-24T07:00:21.010Z,4.20
2023-03-24T07:02:50.887Z,4.40
2023-03-24T07:05:19.283Z,4.00
2023-03-24T07:10:21.765Z,4.70
2023-03-24T07:12:50.278Z,3.87
2023-03-24T07:15:18.627Z,4.37
2023-03-24T07:17:47.041Z,4.50
2023-03-24T07:20:17.895Z,4.73
2023-03-24T07:22:46.193Z,4.40
2023-03-24T07:25:14.543Z,4.30
2023-03-24T07:27:43.211Z,4.77
2023-03-24T07:30:11.772Z,4.57
2023-03-24T07:32:40.190Z,4.80
2023-03-24T07:35:10.935Z,5.20
2023-03-24T07:37:40.898Z,5.00
2023-03-24T07:40:11.834Z,5.47
2023-03-24T07:42:42.130Z,5.30
2023-03-24T07:45:10.841Z,6.00
2023-03-24T07:47:39.550Z,5.10
2023-03-24T07:50:10.269Z,5.23
2023-03-24T07:52:38.691Z,6.77
2023-03-24T07:55:10.879Z,5.87
2023-03-24T07:57:39.439Z,5.47
2023-03-24T08:00:14.923Z,5.53
2023-03-24T08:02:43.577Z,5.93
2023-03-24T08:05:14.158Z,6.00
2023-03-24T08:07:43.628Z,5.60
2023-03-24T08:10:14.913Z,5.10
2023-03-24T08:12:43.384Z,5.50
2023-03-24T08:15:11.807Z,4.87
2023-03-24T08:17:40.641Z,5.43
2023-03-24T08:20:13.111Z,5.67
2023-03-24T08:22:41.929Z,6.63
2023-03-24T08:25:11.417Z,5.30
2023-03-24T08:27:44.744Z,5.20
2023-03-24T08:30:15.324Z,5.50
2023-03-24T08:32:45.050Z,4.40
2023-03-24T08:35:14.493Z,4.87
2023-03-24T08:37:45.091Z,4.73
2023-03-24T08:40:17.225Z,3.93
2023-03-24T08:42:49.407Z,5.63
2023-03-24T08:45:20.936Z,4.43
2023-03-24T08:47:50.528Z,4.70
2023-03-24T08:50:19.271Z,4.73
2023-03-24T08:52:48.162Z,5.03
2023-03-24T08:55:16.597Z,4.70
2023-03-24T08:57:45.132Z,4.53
2023-03-24T09:00:15.967Z,4.13
2023-03-24T09:02:45.127Z,5.00
2023-03-24T09:05:13.575Z,3.73
2023-03-24T09:07:41.885Z,4.60
2023-03-24T09:10:10.800Z,4.70
2023-03-24T09:12:39.941Z,3.80
2023-03-24T09:15:10.731Z,3.17
2023-03-24T09:17:41.648Z,3.27
2023-03-24T09:20:11.901Z,3.83
2023-03-24T09:22:42.805Z,3.90
2023-03-24T09:25:12.817Z,3.83
2023-03-24T09:27:41.152Z,3.70
2023-03-24T09:30:10.481Z,2.60
2023-03-24T09:32:38.922Z,2.57
2023-03-24T09:35:09.478Z,3.00
2023-03-24T09:37:38.553Z,2.80
2023-03-24T09:40:07.937Z,2.83
2023-03-24T09:42:38.177Z,2.90
2023-03-24T09:45:09.576Z,2.70
2023-03-24T09:47:40.194Z,2.20
2023-03-24T09:50:11.678Z,2.47
2023-03-24T09:52:41.859Z,2.07
2023-03-24T09:55:14.495Z,2.57
2023-03-24T09:57:43.318Z,2.43
2023-03-24T10:00:18.328Z,2.77
2023-03-24T10:02:47.751Z,2.63
2023-03-24T10:05:19.454Z,2.60
2023-03-24T10:07:51.249Z,2.53
2023-03-24T10:10:24.025Z,2.73
2023-03-24T10:12:52.326Z,2.80
2023-03-24T10:15:37.369Z,2.73
2023-03-24T10:18:15.420Z,3.00
2023-03-24T10:20:49.023Z,2.70
2023-03-24T10:23:23.415Z,2.57
2023-03-24T10:25:54.072Z,2.80
2023-03-24T10:28:25.471Z,2.50
2023-03-24T10:30:54.876Z,3.43
2023-03-24T10:33:23.227Z,3.03
2023-03-24T10:35:57.782Z,3.50
2023-03-24T10:38:26.151Z,3.30
2023-03-24T10:40:56.132Z,2.80
2023-03-24T10:43:25.528Z,3.43
2023-03-24T10:45:55.316Z,3.37
2023-03-24T10:48:44.500Z,3.10
2023-03-24T10:51:21.938Z,3.20
2023-03-24T10:53:50.759Z,2.47
2023-03-24T10:56:20.042Z,2.87
2023-03-24T10:58:49.391Z,3.07
2023-03-24T11:01:26.246Z,2.80
2023-03-24T11:03:55.140Z,3.37
2023-03-24T11:06:25.067Z,2.90
2023-03-24T11:09:08.548Z,3.23
2023-03-24T11:11:36.998Z,2.53
2023-03-24T11:14:05.457Z,2.60
2023-03-24T11:16:37.511Z,2.47
2023-03-24T11:19:07.079Z,2.20
2023-03-24T11:21:38.590Z,2.47
2023-03-24T11:24:11.683Z,2.27
2023-03-24T11:26:40.935Z,2.37
2023-03-24T11:29:14.212Z,2.43
2023-03-24T11:31:43.151Z,2.00
2023-03-24T11:34:12.711Z,1.97
2023-03-24T11:36:46.770Z,2.23
2023-03-24T11:39:18.834Z,2.50
2023-03-24T11:41:53.153Z,2.40
2023-03-24T11:44:23.110Z,2.50
2023-03-24T11:46:53.957Z,2.07
2023-03-24T11:49:23.833Z,2.67
2023-03-24T11:51:55.375Z,2.80
2023-03-24T11:54:27.523Z,2.80
2023-03-24T11:56:59.583Z,2.30
2023-03-24T11:59:31.877Z,2.80
2023-03-24T12:02:03.200Z,2.87
2023-03-24T12:04:36.572Z,2.87
2023-03-24T12:07:14.721Z,2.93
2023-03-24T12:09:46.016Z,3.27
2023-03-24T12:12:25.178Z,2.93
2023-03-24T12:15:00.253Z,2.93
2023-03-24T12:17:31.244Z,3.17
2023-03-24T12:20:08.630Z,3.17
2023-03-24T12:22:48.331Z,3.13
2023-03-24T12:25:23.661Z,3.30
2023-03-24T12:27:56.031Z,3.93
2023-03-24T12:30:30.839Z,3.30
2023-03-24T12:33:06.256Z,2.80
2023-03-24T12:35:52.646Z,3.60
2023-03-24T12:38:36.185Z,3.30
2023-03-24T12:41:11.034Z,3.40
2023-03-24T12:43:44.824Z,3.40
2023-03-24T12:46:21.612Z,3.70
2023-03-24T12:48:56.228Z,3.77
2023-03-24T12:51:29.216Z,3.00
2023-03-24T12:54:05.092Z,3.30
2023-03-24T12:56:34.890Z,3.80
2023-03-24T12:59:05.052Z,3.90
2023-03-24T13:01:35.640Z,3.40
2023-03-24T13:04:08.721Z,3.33
2023-03-24T13:06:39.411Z,3.50
2023-03-24T13:09:13.154Z,3.33
2023-03-24T13:11:45.581Z,4.03
2023-03-24T13:14:15.905Z,4.13
2023-03-24T13:16:45.069Z,4.30
2023-03-24T13:19:18.858Z,3.70
2023-03-24T13:21:48.269Z,4.07
2023-03-24T13:24:19.684Z,3.57
2023-03-24T13:26:52.554Z,3.80
2023-03-24T13:29:48.346Z,3.57
2023-03-24T13:32:22.441Z,3.80
2023-03-24T13:34:53.244Z,3.70
2023-03-24T13:37:23.233Z,3.57
2023-03-24T13:39:55.810Z,3.47
2023-03-24T13:42:31.470Z,2.87
2023-03-24T13:45:00.859Z,2.77
2023-03-24T13:47:31.768Z,2.10
2023-03-24T13:50:02.034Z,2.40
2023-03-24T13:52:32.865Z,2.10
2023-03-24T13:55:04.238Z,2.20
2023-03-24T13:57:32.736Z,1.87
2023-03-24T14:00:11.490Z,1.47
2023-03-24T14:02:46.856Z,1.50
2023-03-24T14:05:30.293Z,1.43
2023-03-24T14:08:12.335Z,1.57
2023-03-24T14:10:43.526Z,1.20
2023-03-24T14:13:32.485Z,1.60
2023-03-24T14:16:00.917Z,1.60
2023-03-24T14:18:43.132Z,1.40
2023-03-24T14:21:11.956Z,1.30
2023-03-24T14:23:41.872Z,1.40
2023-03-24T14:26:14.415Z,1.07
2023-03-24T14:28:43.240Z,1.20
2023-03-24T14:31:20.081Z,1.10
2023-03-24T14:34:02.440Z,1.10
2023-03-24T14:36:32.728Z,0.73
2023-03-24T14:39:09.263Z,1.00
2023-03-24T14:41:41.840Z,1.20
2023-03-24T14:44:10.247Z,0.80
2023-03-24T14:46:47.532Z,0.70
2023-03-24T14:49:20.173Z,0.90
2023-03-24T14:51:53.992Z,0.93
2023-03-24T14:54:28.772Z,1.00
2023-03-24T14:56:59.834Z,0.80
2023-03-24T14:59:33.266Z,1.00
2023-03-24T15:02:06.520Z,0.77
2023-03-24T15:04:39.584Z,0.87
2023-03-24T15:07:08.017Z,0.93
2023-03-24T15:09:39.043Z,0.77
2023-03-24T15:12:09.019Z,1.00
2023-03-24T15:14:38.385Z,1.07
2023-03-24T15:17:08.872Z,1.20
2023-03-24T15:19:37.386Z,1.00
2023-03-24T15:22:07.712Z,1.10
2023-03-24T15:24:38.200Z,0.90
2023-03-24T15:27:16.506Z,0.87
2023-03-24T15:29:45.861Z,0.83
2023-03-24T15:32:18.688Z,0.80
2023-03-24T15:34:50.255Z,1.07
2023-03-24T15:37:22.705Z,1.00
2023-03-24T15:39:53.892Z,1.40
2023-03-24T15:42:27.051Z,1.10
2023-03-24T15:44:55.918Z,1.10
2023-03-24T15:47:25.304Z,1.07
2023-03-24T15:49:54.844Z,1.20
2023-03-24T15:52:28.089Z,0.97
2023-03-24T15:54:57.902Z,1.10
2023-03-24T15:57:28.237Z,1.17
2023-03-24T16:00:11.813Z,1.20
2023-03-24T16:02:42.452Z,1.60
2023-03-24T16:05:17.611Z,1.53
2023-03-24T16:07:46.114Z,1.50
2023-03-24T16:10:33.291Z,1.67
2023-03-24T16:13:13.383Z,1.50
2023-03-24T16:15:42.405Z,1.33
2023-03-24T16:18:14.054Z,1.30
2023-03-24T16:20:42.566Z,1.00
2023-03-24T16:23:11.914Z,1.23
2023-03-24T16:25:40.716Z,1.20
2023-03-24T16:28:12.667Z,1.23
2023-03-24T16:30:42.143Z,1.30
2023-03-24T16:33:12.634Z,1.30
2023-03-24T16:35:41.302Z,1.33
2023-03-24T16:38:10.951Z,1.20
2023-03-24T16:40:40.841Z,1.30
2023-03-24T16:43:09.189Z,1.30
2023-03-24T16:45:39.161Z,1.20
2023-03-24T16:48:07.674Z,1.10
2023-03-24T16:50:38.274Z,1.30
2023-03-24T16:53:08.288Z,2.73
2023-03-24T16:55:36.968Z,1.60
2023-03-24T16:58:05.416Z,1.13
2023-03-24T17:00:34.188Z,1.30
2023-03-24T17:03:04.471Z,1.07
2023-03-24T17:05:36.356Z,1.50
2023-03-24T17:08:04.772Z,1.03
2023-03-24T17:10:33.319Z,1.30
2023-03-24T17:13:02.060Z,1.10
2023-03-24T17:15:31.395Z,1.00
2023-03-24T17:18:02.923Z,1.10
2023-03-24T17:20:32.752Z,1.27
2023-03-24T17:23:01.221Z,1.47
2023-03-24T17:25:29.875Z,1.60
2023-03-24T17:27:59.695Z,1.27
2023-03-24T17:30:30.923Z,1.23
2023-03-24T17:32:59.800Z,1.47
2023-03-24T17:35:28.379Z,1.40
2023-03-24T17:37:58.250Z,1.20
2023-03-24T17:40:28.417Z,1.60
2023-03-24T17:42:56.959Z,1.50
2023-03-24T17:45:25.387Z,1.20
2023-03-24T17:47:54.972Z,1.10
2023-03-24T17:50:23.468Z,1.37
2023-03-24T17:52:51.979Z,1.17
2023-03-24T17:55:22.081Z,1.20
2023-03-24T17:57:50.445Z,1.40
2023-03-24T18:00:18.984Z,1.40
2023-03-24T18:02:47.433Z,1.60
2023-03-24T18:05:16.067Z,1.30
2023-03-24T18:07:44.725Z,1.10
2023-03-24T18:10:13.931Z,1.13
2023-03-24T18:12:43.688Z,1.30
2023-03-24T18:15:12.688Z,1.20
2023-03-24T18:17:41.017Z,1.60
2023-03-24T18:20:12.167Z,0.90
2023-03-24T18:22:40.995Z,1.00
2023-03-24T18:25:10.518Z,1.30
2023-03-24T18:27:39.013Z,1.10
2023-03-24T18:30:10.111Z,1.80
2023-03-24T18:32:39.297Z,2.10
2023-03-24T18:35:08.869Z,0.97
2023-03-24T18:37:37.554Z,3.00
2023-03-24T18:40:08.548Z,1.47
2023-03-24T18:42:37.181Z,1.40
2023-03-24T18:45:06.082Z,1.40
2023-03-24T18:47:36.484Z,1.90
2023-03-24T18:50:05.040Z,2.00
2023-03-24T18:52:33.461Z,1.23
2023-03-24T18:55:02.659Z,1.87
2023-03-24T18:57:31.159Z,1.40
2023-03-24T19:00:00.301Z,1.23
2023-03-24T19:02:28.969Z,1.43
2023-03-24T19:05:00.235Z,1.53
2023-03-24T19:07:28.848Z,2.10
2023-03-24T19:09:57.212Z,1.00
2023-03-24T19:12:25.678Z,1.50
2023-03-24T19:14:56.027Z,2.50
2023-03-24T19:17:24.758Z,2.30
2023-03-24T19:19:58.152Z,3.50
2023-03-24T19:22:27.962Z,1.70
2023-03-24T19:24:56.424Z,8.00
2023-03-24T19:27:24.929Z,6.90
2023-03-24T19:29:53.286Z,3.63
2023-03-24T19:32:21.655Z,6.63
2023-03-24T19:34:50.406Z,2.80
2023-03-24T19:37:20.138Z,1.10
2023-03-24T19:39:49.867Z,1.20
2023-03-24T19:42:18.347Z,1.10
2023-03-24T19:44:46.783Z,1.53
2023-03-24T19:47:15.095Z,0.90
2023-03-24T19:49:43.499Z,1.10
2023-03-24T19:52:11.861Z,0.93
2023-03-24T19:54:40.457Z,1.10
2023-03-24T19:57:10.504Z,1.23
2023-03-24T19:59:38.968Z,1.13
2023-03-24T20:02:07.317Z,1.20
2023-03-24T20:04:35.823Z,0.97
2023-03-24T20:07:04.270Z,1.23
2023-03-24T20:09:32.680Z,1.67
2023-03-24T20:12:01.094Z,1.30
2023-03-24T20:14:31.499Z,1.20
2023-03-24T20:16:59.883Z,1.60
2023-03-24T20:19:28.267Z,1.70
2023-03-24T20:21:56.683Z,1.63
2023-03-24T20:24:25.092Z,1.40
2023-03-24T20:26:53.367Z,1.20
2023-03-24T20:29:21.958Z,1.40
2023-03-24T20:31:52.393Z,2.13
2023-03-24T20:34:20.799Z,1.80
2023-03-24T20:36:49.176Z,2.10
2023-03-24T20:39:17.811Z,1.90
2023-03-24T20:41:46.171Z,2.40
2023-03-24T20:44:14.522Z,2.20
2023-03-24T20:46:44.751Z,1.50
2023-03-24T20:49:16.818Z,1.53
2023-03-24T20:51:45.141Z,5.67
2023-03-24T20:54:13.473Z,4.53
2023-03-24T20:56:42.704Z,2.00
2023-03-24T20:59:10.980Z,1.37
2023-03-24T21:01:41.953Z,1.20
2023-03-24T21:04:10.935Z,1.20
2023-03-24T21:06:40.616Z,1.03
2023-03-24T21:09:09.062Z,0.90
2023-03-24T21:11:37.405Z,0.97
2023-03-24T21:14:05.759Z,0.90
2023-03-24T21:16:37.305Z,1.07
2023-03-24T21:19:06.156Z,0.87
2023-03-24T21:21:34.478Z,1.10
2023-03-24T21:24:04.329Z,1.10
2023-03-24T21:26:32.610Z,1.10
2023-03-24T21:29:00.979Z,1.00
2023-03-24T21:31:30.486Z,0.90
2023-03-24T21:33:59.343Z,0.87
2023-03-24T21:36:29.955Z,1.00
2023-03-24T21:38:58.517Z,1.10
2023-03-24T21:41:28.948Z,1.40
2023-03-24T21:44:00.778Z,1.40
2023-03-24T21:46:32.047Z,1.10
2023-03-24T21:49:01.147Z,1.30
2023-03-24T21:51:33.988Z,1.13
2023-03-24T21:54:04.490Z,1.10
2023-03-24T21:56:35.270Z,1.10
2023-03-24T21:59:03.877Z,1.60
2023-03-24T22:01:34.121Z,1.70
2023-03-24T22:04:03.428Z,1.50
2023-03-24T22:06:37.444Z,1.53
2023-03-24T22:09:07.799Z,1.30
2023-03-24T22:11:42.839Z,1.60
2023-03-24T22:14:12.526Z,1.60
2023-03-24T22:16:41.023Z,1.23
2023-03-24T22:19:09.478Z,1.30
2023-03-24T22:21:39.532Z,1.60
2023-03-24T22:24:08.488Z,1.13
2023-03-24T22:26:38.120Z,0.93
2023-03-24T22:29:06.477Z,0.97
2023-03-24T22:31:35.294Z,1.10
2023-03-24T22:34:03.700Z,1.17
2023-03-24T22:36:32.071Z,1.00
2023-03-24T22:39:00.465Z,1.40
2023-03-24T22:41:28.893Z,0.93
2023-03-24T22:43:58.615Z,0.80
2023-03-24T22:46:27.085Z,1.00
2023-03-24T22:48:55.346Z,0.80
2023-03-24T22:51:23.696Z,1.03
2023-03-24T22:53:52.463Z,0.90
2023-03-24T22:56:22.074Z,1.10
2023-03-24T22:58:50.500Z,1.10
2023-03-24T23:01:20.447Z,1.07
2023-03-24T23:03:48.845Z,0.83
2023-03-24T23:06:17.217Z,1.33
2023-03-24T23:08:45.691Z,0.90
2023-03-24T23:11:14.176Z,1.30
2023-03-24T23:13:42.720Z,0.90
2023-03-24T23:16:11.271Z,1.10
2023-03-24T23:18:41.380Z,0.90
2023-03-24T23:21:10.696Z,1.10
2023-03-24T23:23:40.038Z,1.53
2023-03-24T23:26:25.856Z,1.70
2023-03-24T23:28:55.219Z,1.73
2023-03-24T23:31:25.525Z,2.10
2023-03-24T23:33:56.361Z,1.20
2023-03-24T23:36:26.325Z,1.03
2023-03-24T23:38:55.123Z,1.10
2023-03-24T23:41:24.501Z,1.20
2023-03-24T23:43:54.113Z,1.77
2023-03-24T23:46:23.891Z,1.43
2023-03-24T23:48:52.593Z,1.30
2023-03-24T23:51:22.381Z,1.00
2023-03-24T23:53:51.069Z,1.03
2023-03-24T23:56:22.747Z,1.27
2023-03-24T23:58:51.190Z,1.37
